Time;durP1;ratioP1;P1;durP2;ratioP2;P2;SDS_P1;SDS_P2;PMS_P1;PMS_P2;Temp;Humidity;BMP_temperature;BMP_pressure;BME280_temperature;BME280_humidity;BME280_pressure;Samples;Min_cycle;Max_cycle;Signal;HPM_P1;HPM_P2
2022/02/06 00:00:23;;;;;;;;;;;24.30;67.20;;;;;;5094518;28;19908;-60
2022/02/06 00:02:51;;;;;;;;;;;24.40;67.00;;;;;;5094771;28;19912;-58
2022/02/06 00:05:18;;;;;;;;;;;24.50;66.80;;;;;;5094493;28;19923;-59
2022/02/06 00:07:47;;;;;;;;;;;24.50;66.70;;;;;;5094203;28;19955;-55
2022/02/06 00:10:14;;;;;;;;;;;24.50;66.90;;;;;;5094118;28;19908;-59
2022/02/06 00:12:40;;;;;;;;;;;24.50;67.00;;;;;;5093493;28;19912;-51
2022/02/06 00:15:07;;;;;;;;;;;24.50;67.00;;;;;;5093790;28;19919;-59
2022/02/06 00:17:34;;;;;;;;;;;24.50;66.90;;;;;;5094156;28;19908;-55
2022/02/06 00:20:01;;;;;;;;;;;24.60;66.90;;;;;;5092646;28;20028;-53
2022/02/06 00:30:26;;;;;;;;;;;24.50;67.50;;;;;;5093730;28;20286;-57
2022/02/06 00:33:00;;;;;;;;;;;24.60;67.10;;;;;;5093791;28;20021;-60
2022/02/06 00:38:09;;;;;;;;;;;24.60;67.50;;;;;;5093213;28;19915;-61
2022/02/06 00:43:22;;;;;;;;;;;24.60;67.70;;;;;;5093955;28;19915;-54
2022/02/06 00:45:49;;;;;;;;;;;24.60;68.10;;;;;;5093493;28;20255;-62
2022/02/06 00:48:21;;;;;;;;;;;24.60;67.70;;;;;;5093530;28;19909;-60
2022/02/06 00:50:53;;;;;;;;;;;24.60;68.10;;;;;;5093255;28;19996;-61
2022/02/06 00:53:20;;;;;;;;;;;24.60;68.40;;;;;;5092944;28;19935;-59
2022/02/06 00:55:46;;;;;;;;;;;24.70;68.00;;;;;;5093334;28;19914;-62
2022/02/06 00:58:13;;;;;;;;;;;24.70;67.80;;;;;;5093404;28;19908;-58
2022/02/06 01:00:40;;;;;;;;;;;24.60;68.00;;;;;;5093248;28;20006;-53
2022/02/06 01:03:06;;;;;;;;;;;24.70;68.10;;;;;;5093065;28;20011;-60
2022/02/06 01:05:33;;;;;;;;;;;24.60;68.00;;;;;;5092765;28;19916;-61
2022/02/06 01:08:00;;;;;;;;;;;24.70;68.10;;;;;;5092359;28;19957;-58
2022/02/06 01:10:27;;;;;;;;;;;24.70;68.60;;;;;;5092877;28;19999;-61
2022/02/06 01:13:00;;;;;;;;;;;24.70;68.20;;;;;;5092895;28;19969;-58
2022/02/06 01:15:33;;;;;;;;;;;24.70;68.10;;;;;;5092891;28;19965;-61
2022/02/06 01:18:07;;;;;;;;;;;24.80;67.90;;;;;;5092927;28;19912;-54
2022/02/06 01:20:39;;;;;;;;;;;24.80;67.60;;;;;;5093249;28;19908;-51
2022/02/06 01:23:23;;;;;;;;;;;24.80;68.70;;;;;;5092980;28;19908;-57
2022/02/06 01:25:56;;;;;;;;;;;24.80;68.10;;;;;;5092962;28;20290;-61
2022/02/06 01:28:32;;;;;;;;;;;24.90;67.80;;;;;;5093081;28;19908;-62
2022/02/06 01:31:16;;;;;;;;;;;24.90;68.40;;;;;;5091798;28;19908;-57
2022/02/06 01:33:48;;;;;;;;;;;24.90;69.00;;;;;;5092634;28;19909;-61
2022/02/06 01:36:26;;;;;;;;;;;24.90;68.90;;;;;;5092651;28;19933;-58
2022/02/06 01:41:24;;;;;;;;;;;24.80;68.80;;;;;;5092498;28;19912;-52
2022/02/06 01:43:59;;;;;;;;;;;24.70;68.60;;;;;;5092569;28;19956;-56
2022/02/06 02:00:40;;;;;;;;;;;24.80;69.00;;;;;;5092895;28;19953;-58
2022/02/06 02:03:19;;;;;;;;;;;24.90;68.60;;;;;;5092772;28;19908;-60
2022/02/06 02:27:38;;;;;;;;;;;25.10;68.60;;;;;;5075963;28;19966;-61
2022/02/06 02:30:36;;;;;;;;;;;25.10;69.00;;;;;;5075703;28;19908;-61
2022/02/06 02:46:42;;;;;;;;;;;25.30;66.30;;;;;;5075400;28;19913;-61
2022/02/06 02:49:14;;;;;;;;;;;25.40;67.60;;;;;;5074798;28;19908;-56
2022/02/06 02:51:45;;;;;;;;;;;25.50;66.80;;;;;;5074679;28;19951;-56
2022/02/06 02:54:18;;;;;;;;;;;25.50;67.60;;;;;;5074649;28;20362;-54
2022/02/06 02:56:51;;;;;;;;;;;25.60;67.40;;;;;;5074665;28;19965;-52
2022/02/06 03:04:11;;;;;;;;;;;25.80;67.20;;;;;;5074565;28;20003;-53
2022/02/06 03:06:38;;;;;;;;;;;25.70;71.30;;;;;;5074380;28;19913;-60
2022/02/06 03:09:05;;;;;;;;;;;25.60;70.60;;;;;;5074263;28;19908;-57
2022/02/06 03:11:32;;;;;;;;;;;25.50;70.40;;;;;;5074994;28;19912;-60
2022/02/06 03:17:02;;;;;;;;;;;25.50;70.30;;;;;;5090078;28;19970;-56
2022/02/06 03:19:38;;;;;;;;;;;25.50;70.10;;;;;;5094701;28;19908;-52
2022/02/06 03:22:05;;;;;;;;;;;25.60;71.20;;;;;;5093264;28;20300;-55
2022/02/06 03:24:40;;;;;;;;;;;25.50;72.00;;;;;;5094720;28;20377;-58
2022/02/06 03:27:07;;;;;;;;;;;25.60;71.80;;;;;;5094506;28;20311;-53
2022/02/06 03:29:34;;;;;;;;;;;25.60;71.90;;;;;;5094566;28;20444;-57
2022/02/06 03:32:00;;;;;;;;;;;25.70;71.90;;;;;;5093502;28;20350;-55
2022/02/06 03:34:27;;;;;;;;;;;25.70;71.90;;;;;;5094505;28;20319;-59
2022/02/06 03:36:54;;;;;;;;;;;25.70;71.70;;;;;;5094142;28;19916;-57
2022/02/06 03:39:23;;;;;;;;;;;25.60;72.00;;;;;;5094396;28;19919;-55
2022/02/06 03:44:38;;;;;;;;;;;25.60;71.80;;;;;;5094343;28;19912;-52
2022/02/06 03:47:15;;;;;;;;;;;25.60;72.70;;;;;;5094565;28;20385;-54
2022/02/06 03:49:55;;;;;;;;;;;25.60;72.60;;;;;;5094445;28;19933;-55
2022/02/06 03:52:27;;;;;;;;;;;25.60;72.80;;;;;;5094474;28;19912;-54
2022/02/06 03:54:54;;;;;;;;;;;25.60;72.30;;;;;;5093906;28;20238;-56
2022/02/06 03:57:20;;;;;;;;;;;25.60;71.70;;;;;;5093845;28;19912;-55
2022/02/06 03:59:47;;;;;;;;;;;25.70;71.20;;;;;;5094244;28;20326;-51
2022/02/06 04:02:13;;;;;;;;;;;25.70;72.20;;;;;;5093881;28;19912;-52
2022/02/06 04:04:40;;;;;;;;;;;25.70;70.40;;;;;;5093436;28;19930;-51
2022/02/06 04:07:11;;;;;;;;;;;25.80;67.80;;;;;;5093988;28;20435;-51
2022/02/06 04:09:45;;;;;;;;;;;25.80;67.70;;;;;;5093813;28;19916;-48
2022/02/06 04:12:15;;;;;;;;;;;25.90;68.10;;;;;;5093332;28;20011;-50
2022/02/06 04:14:53;;;;;;;;;;;25.90;69.50;;;;;;5093401;28;19980;-50
2022/02/06 04:17:26;;;;;;;;;;;26.00;68.90;;;;;;5093712;28;19918;-50
2022/02/06 04:19:53;;;;;;;;;;;26.00;69.70;;;;;;5093075;28;19908;-48
2022/02/06 04:22:20;;;;;;;;;;;26.00;67.60;;;;;;5093277;28;19909;-53
2022/02/06 04:24:47;;;;;;;;;;;26.00;68.70;;;;;;5093209;28;19912;-52
2022/02/06 04:27:14;;;;;;;;;;;25.90;68.20;;;;;;5093575;28;19912;-50
2022/02/06 04:29:41;;;;;;;;;;;26.00;70.00;;;;;;5093173;28;19953;-51
2022/02/06 04:32:08;;;;;;;;;;;26.00;69.90;;;;;;5093381;28;20274;-49
2022/02/06 04:34:35;;;;;;;;;;;26.00;71.30;;;;;;5093275;28;19914;-50
2022/02/06 04:37:15;;;;;;;;;;;26.00;70.10;;;;;;5093406;28;20346;-53
2022/02/06 04:42:39;;;;;;;;;;;26.10;67.50;;;;;;5093476;28;19908;-50
2022/02/06 05:20:36;;;;;;;;;;;26.00;69.90;;;;;;5070896;28;20007;-55
2022/02/06 05:30:50;;;;;;;;;;;26.00;69.80;;;;;;5092818;28;20376;-60
2022/02/06 05:33:17;;;;;;;;;;;25.90;69.80;;;;;;5092656;28;19969;-58
2022/02/06 05:35:44;;;;;;;;;;;25.90;70.40;;;;;;5092639;28;19908;-55
2022/02/06 05:38:11;;;;;;;;;;;25.90;70.70;;;;;;5092530;28;19970;-58
2022/02/06 05:40:37;;;;;;;;;;;25.90;70.80;;;;;;5092674;28;19908;-61
2022/02/06 05:43:04;;;;;;;;;;;25.90;70.80;;;;;;5093067;28;19969;-61
2022/02/06 05:45:31;;;;;;;;;;;25.90;71.10;;;;;;5092529;28;20023;-59
2022/02/06 05:47:58;;;;;;;;;;;25.90;71.10;;;;;;5091000;28;19908;-59
2022/02/06 05:50:24;;;;;;;;;;;25.90;71.20;;;;;;5092610;28;20330;-62
2022/02/06 05:52:51;;;;;;;;;;;25.80;71.30;;;;;;5093014;28;19985;-60
2022/02/06 05:55:19;;;;;;;;;;;25.80;71.60;;;;;;5094603;28;20379;-55
2022/02/06 05:57:45;;;;;;;;;;;25.80;71.70;;;;;;5097001;28;20424;-55
2022/02/06 06:00:12;;;;;;;;;;;25.70;71.70;;;;;;5096768;28;19961;-52
2022/02/06 06:02:39;;;;;;;;;;;25.60;72.20;;;;;;5096978;28;19959;-57
2022/02/06 06:05:06;;;;;;;;;;;25.70;72.10;;;;;;5096809;28;19916;-59
2022/02/06 06:07:33;;;;;;;;;;;25.60;72.50;;;;;;5096577;28;19908;-57
2022/02/06 06:10:00;;;;;;;;;;;25.60;72.40;;;;;;5096274;28;19923;-58
2022/02/06 06:12:26;;;;;;;;;;;25.60;72.60;;;;;;5096674;28;20008;-60
2022/02/06 06:14:55;;;;;;;;;;;25.50;72.50;;;;;;5096391;28;19923;-57
2022/02/06 06:17:22;;;;;;;;;;;25.50;72.60;;;;;;5096136;28;19908;-62
2022/02/06 06:19:48;;;;;;;;;;;25.50;72.90;;;;;;5096482;28;20351;-55
2022/02/06 06:22:18;;;;;;;;;;;25.50;72.80;;;;;;5096072;28;19908;-58
2022/02/06 06:24:51;;;;;;;;;;;25.50;72.70;;;;;;5096287;28;19916;-58
2022/02/06 06:27:18;;;;;;;;;;;25.50;72.70;;;;;;5096251;28;20007;-57
2022/02/06 06:29:45;;;;;;;;;;;25.40;72.60;;;;;;5096132;28;19998;-58
2022/02/06 06:32:12;;;;;;;;;;;25.40;72.60;;;;;;5096306;28;19934;-61
2022/02/06 06:34:49;;;;;;;;;;;;;;;;;;;;;
2022/02/06 06:37:18;;;;;;;;;;;25.40;73.20;;;;;;5096160;28;19908;-58
2022/02/06 06:39:46;;;;;;;;;;;25.40;72.80;;;;;;5095893;28;19938;-61
2022/02/06 06:42:14;;;;;;;;;;;25.40;73.00;;;;;;5095892;28;20019;-60
2022/02/06 06:44:42;;;;;;;;;;;25.40;72.90;;;;;;5095910;28;20366;-60
2022/02/06 06:47:09;;;;;;;;;;;25.40;72.50;;;;;;5096272;28;19954;-59
2022/02/06 06:49:36;;;;;;;;;;;25.30;73.00;;;;;;5095980;28;20426;-58
2022/02/06 06:52:04;;;;;;;;;;;25.30;73.10;;;;;;5095354;28;19908;-60
2022/02/06 06:54:44;;;;;;;;;;;25.30;73.20;;;;;;5096081;28;20246;-56
2022/02/06 06:57:24;;;;;;;;;;;25.30;73.50;;;;;;5095829;28;19931;-62
2022/02/06 07:02:27;;;;;;;;;;;25.20;73.30;;;;;;5096084;28;20004;-55
2022/02/06 07:04:54;;;;;;;;;;;25.20;73.50;;;;;;5095772;28;19943;-56
2022/02/06 07:07:21;;;;;;;;;;;25.20;73.60;;;;;;5095381;28;19961;-59
2022/02/06 07:09:48;;;;;;;;;;;25.10;73.50;;;;;;5095003;28;19908;-55
2022/02/06 07:12:14;;;;;;;;;;;25.10;73.70;;;;;;5096099;28;20427;-59
2022/02/06 07:14:42;;;;;;;;;;;25.10;73.50;;;;;;5096499;28;19927;-58
2022/02/06 07:17:09;;;;;;;;;;;25.00;73.90;;;;;;5095997;28;19915;-57
2022/02/06 07:19:36;;;;;;;;;;;25.10;73.90;;;;;;5095455;28;20342;-62
2022/02/06 07:22:02;;;;;;;;;;;25.00;73.80;;;;;;5095230;28;19909;-60
2022/02/06 07:24:30;;;;;;;;;;;25.00;74.00;;;;;;5095436;28;19923;-52
2022/02/06 07:27:01;;;;;;;;;;;25.00;74.00;;;;;;5095580;28;19908;-59
2022/02/06 07:29:28;;;;;;;;;;;25.00;74.10;;;;;;5095905;28;19908;-60
2022/02/06 07:31:56;;;;;;;;;;;24.90;74.30;;;;;;5095599;28;19908;-61
2022/02/06 07:34:26;;;;;;;;;;;24.90;74.20;;;;;;5095369;28;19931;-59
2022/02/06 07:36:53;;;;;;;;;;;24.90;74.40;;;;;;5095389;28;19908;-58
2022/02/06 07:39:19;;;;;;;;;;;24.90;74.70;;;;;;5128139;27;19915;-59
2022/02/06 07:41:46;;;;;;;;;;;24.90;74.50;;;;;;5095742;28;20378;-54
2022/02/06 07:44:13;;;;;;;;;;;24.90;74.80;;;;;;5094905;28;20366;-58
2022/02/06 07:46:48;;;;;;;;;;;24.90;74.80;;;;;;5094968;28;19935;-58
2022/02/06 07:49:16;;;;;;;;;;;24.90;75.30;;;;;;5094977;28;19908;-56
2022/02/06 07:51:43;;;;;;;;;;;24.90;75.00;;;;;;5093265;28;20003;-61
2022/02/06 07:54:10;;;;;;;;;;;24.80;75.10;;;;;;5094157;28;19912;-61
2022/02/06 07:56:37;;;;;;;;;;;24.80;75.10;;;;;;5094404;28;20362;-58
2022/02/06 07:59:04;;;;;;;;;;;24.80;75.10;;;;;;5094429;28;20350;-55
2022/02/06 08:01:30;;;;;;;;;;;24.80;75.10;;;;;;5094125;28;20012;-60
2022/02/06 08:03:57;;;;;;;;;;;24.80;75.40;;;;;;5093998;28;19915;-56
2022/02/06 08:06:24;;;;;;;;;;;24.70;75.30;;;;;;5094378;28;19923;-54
2022/02/06 08:08:51;;;;;;;;;;;24.70;75.30;;;;;;5094459;28;20327;-53
2022/02/06 08:11:17;;;;;;;;;;;24.70;75.40;;;;;;5094207;28;19984;-53
2022/02/06 08:13:51;;;;;;;;;;;24.70;75.50;;;;;;5093847;28;19908;-52
2022/02/06 08:16:21;;;;;;;;;;;24.60;75.50;;;;;;5092376;28;20027;-50
2022/02/06 08:18:48;;;;;;;;;;;24.60;75.70;;;;;;5109057;28;19918;-61
2022/02/06 08:21:16;;;;;;;;;;;24.60;75.60;;;;;;5094026;28;19977;-54
2022/02/06 08:23:44;;;;;;;;;;;24.50;75.50;;;;;;5094076;28;19908;-55
2022/02/06 08:26:10;;;;;;;;;;;24.50;75.50;;;;;;5093744;28;19920;-57
2022/02/06 08:28:37;;;;;;;;;;;24.50;75.70;;;;;;5093676;28;20278;-58
2022/02/06 08:31:05;;;;;;;;;;;24.40;75.60;;;;;;5093638;28;20026;-58
2022/02/06 08:33:31;;;;;;;;;;;24.40;75.80;;;;;;5093759;28;19908;-59
2022/02/06 08:35:59;;;;;;;;;;;24.30;75.80;;;;;;5093147;28;19915;-56
2022/02/06 08:38:25;;;;;;;;;;;24.30;76.00;;;;;;5093636;28;19916;-52
2022/02/06 08:40:52;;;;;;;;;;;24.30;76.00;;;;;;5093901;28;19908;-57
2022/02/06 08:43:19;;;;;;;;;;;24.30;76.10;;;;;;5093591;28;19908;-55
2022/02/06 08:45:46;;;;;;;;;;;24.20;76.20;;;;;;5093879;28;19922;-55
2022/02/06 08:48:13;;;;;;;;;;;24.20;76.20;;;;;;5093321;28;19920;-57
2022/02/06 08:50:39;;;;;;;;;;;24.20;76.30;;;;;;5093294;28;19919;-59
2022/02/06 08:53:06;;;;;;;;;;;24.10;76.30;;;;;;5093441;28;19977;-60
2022/02/06 08:55:33;;;;;;;;;;;24.10;76.40;;;;;;5092881;28;20381;-60
2022/02/06 08:58:00;;;;;;;;;;;24.10;76.50;;;;;;5093038;28;19919;-51
2022/02/06 09:00:27;;;;;;;;;;;24.10;76.50;;;;;;5093331;28;19915;-54
2022/02/06 09:02:54;;;;;;;;;;;24.00;76.50;;;;;;5093129;28;20008;-55
2022/02/06 09:05:23;;;;;;;;;;;24.00;76.50;;;;;;5092744;28;19920;-57
2022/02/06 09:07:50;;;;;;;;;;;23.90;76.50;;;;;;5093305;28;20355;-55
2022/02/06 09:10:19;;;;;;;;;;;23.90;76.60;;;;;;5092247;28;19908;-56
2022/02/06 09:12:50;;;;;;;;;;;23.90;76.60;;;;;;5092974;28;20048;-59
2022/02/06 09:15:18;;;;;;;;;;;23.90;76.60;;;;;;5092996;28;19971;-57
2022/02/06 09:17:44;;;;;;;;;;;23.90;76.60;;;;;;5093197;28;19915;-52
2022/02/06 09:20:12;;;;;;;;;;;23.90;76.70;;;;;;5092879;28;20170;-59
2022/02/06 09:22:41;;;;;;;;;;;23.80;76.60;;;;;;5093403;28;19912;-56
2022/02/06 09:25:08;;;;;;;;;;;23.80;76.60;;;;;;5093480;28;19955;-61
2022/02/06 09:27:35;;;;;;;;;;;23.80;76.60;;;;;;5093447;28;19908;-58
2022/02/06 09:30:04;;;;;;;;;;;23.80;76.60;;;;;;5092857;28;20027;-62
2022/02/06 09:37:24;;;;;;;;;;;23.70;76.50;;;;;;5093873;28;19998;-61
2022/02/06 09:39:51;;;;;;;;;;;23.70;76.50;;;;;;5093216;28;19916;-56
2022/02/06 09:42:19;;;;;;;;;;;23.70;76.60;;;;;;5093190;28;19915;-56
2022/02/06 09:44:47;;;;;;;;;;;23.70;76.50;;;;;;5093486;28;19918;-57
2022/02/06 09:47:21;;;;;;;;;;;23.70;76.30;;;;;;5093175;28;19920;-59
2022/02/06 09:49:48;;;;;;;;;;;23.70;76.40;;;;;;5093292;28;19938;-60
2022/02/06 09:52:24;;;;;;;;;;;23.70;76.50;;;;;;5093112;28;19908;-63
2022/02/06 09:54:55;;;;;;;;;;;23.70;76.50;;;;;;5093830;28;20381;-57
2022/02/06 09:57:30;;;;;;;;;;;23.70;76.50;;;;;;5093310;28;20248;-59
2022/02/06 09:59:58;;;;;;;;;;;23.70;76.40;;;;;;5093321;28;19919;-61
2022/02/06 10:02:26;;;;;;;;;;;23.70;76.40;;;;;;5092948;28;20007;-57
2022/02/06 10:04:56;;;;;;;;;;;23.70;76.30;;;;;;5092612;28;19916;-56
2022/02/06 10:07:28;;;;;;;;;;;23.70;76.40;;;;;;5092805;28;19916;-60
2022/02/06 10:10:03;;;;;;;;;;;23.70;76.50;;;;;;5092588;28;20041;-59
2022/02/06 10:12:35;;;;;;;;;;;23.60;76.30;;;;;;5092862;28;19916;-63
2022/02/06 10:15:03;;;;;;;;;;;23.70;76.50;;;;;;5092416;28;20007;-60
2022/02/06 10:17:29;;;;;;;;;;;23.60;76.30;;;;;;5093311;28;19955;-59
2022/02/06 10:19:59;;;;;;;;;;;23.60;76.40;;;;;;5092611;28;20369;-62
2022/02/06 10:22:31;;;;;;;;;;;23.60;76.40;;;;;;5093026;28;19912;-60
2022/02/06 10:25:03;;;;;;;;;;;23.60;76.40;;;;;;5093022;28;19912;-61
2022/02/06 10:27:53;;;;;;;;;;;23.60;76.50;;;;;;5092825;28;19908;-59
2022/02/06 10:30:40;;;;;;;;;;;23.50;76.60;;;;;;5092782;28;19908;-51
2022/02/06 10:33:36;;;;;;;;;;;23.60;76.50;;;;;;5090704;28;19973;-52
2022/02/06 10:36:02;;;;;;;;;;;23.50;76.50;;;;;;5086794;28;19915;-60
2022/02/06 10:38:29;;;;;;;;;;;23.50;76.50;;;;;;5092123;28;19908;-54
2022/02/06 10:41:04;;;;;;;;;;;23.60;76.60;;;;;;5093193;28;19939;-57
2022/02/06 10:43:31;;;;;;;;;;;23.60;76.60;;;;;;5095733;28;20230;-57
2022/02/06 10:46:12;;;;;;;;;;;23.50;76.70;;;;;;5095217;28;20278;-55
2022/02/06 10:48:46;;;;;;;;;;;23.50;76.90;;;;;;5095790;28;19965;-55
2022/02/06 10:51:32;;;;;;;;;;;23.50;77.00;;;;;;5095628;28;19946;-50
2022/02/06 10:54:00;;;;;;;;;;;23.40;76.90;;;;;;5091079;28;19961;-61
2022/02/06 10:56:27;;;;;;;;;;;23.40;77.10;;;;;;5095550;28;19909;-56
2022/02/06 10:59:01;;;;;;;;;;;23.40;77.10;;;;;;5095854;28;19914;-58
2022/02/06 11:01:30;;;;;;;;;;;23.40;77.20;;;;;;5094533;28;19914;-56
2022/02/06 11:04:29;;;;;;;;;;;23.30;77.30;;;;;;5093824;28;19908;-57
2022/02/06 11:07:18;;;;;;;;;;;23.30;77.40;;;;;;5095433;28;19970;-60
2022/02/06 11:09:46;;;;;;;;;;;23.30;77.40;;;;;;5095483;28;19975;-57
2022/02/06 11:12:15;;;;;;;;;;;23.30;77.60;;;;;;5095285;28;19951;-55
2022/02/06 11:14:47;;;;;;;;;;;23.30;77.50;;;;;;5095212;28;19920;-52
2022/02/06 11:17:21;;;;;;;;;;;23.30;77.60;;;;;;5095318;28;20011;-56
2022/02/06 11:20:08;;;;;;;;;;;23.30;77.60;;;;;;5095175;28;19908;-58
2022/02/06 11:22:36;;;;;;;;;;;23.20;77.70;;;;;;5095557;28;19954;-47
2022/02/06 11:25:05;;;;;;;;;;;23.20;77.80;;;;;;5095382;28;19973;-59
2022/02/06 11:27:33;;;;;;;;;;;23.20;77.80;;;;;;5095564;28;19908;-56
2022/02/06 11:30:00;;;;;;;;;;;23.20;77.80;;;;;;5094880;28;19908;-63
2022/02/06 11:32:27;;;;;;;;;;;23.20;77.80;;;;;;5095220;28;20425;-58
2022/02/06 11:34:57;;;;;;;;;;;23.20;77.90;;;;;;5094974;28;20273;-59
2022/02/06 11:46:15;;;;;;;;;;;23.20;78.10;;;;;;5094647;28;19969;-61
2022/02/06 11:48:44;;;;;;;;;;;23.10;78.10;;;;;;5095003;28;19908;-64
2022/02/06 11:51:16;;;;;;;;;;;23.10;78.20;;;;;;5095030;28;20286;-56
2022/02/06 11:53:43;;;;;;;;;;;23.10;78.30;;;;;;5094289;28;20019;-57
2022/02/06 11:56:28;;;;;;;;;;;23.10;78.30;;;;;;5094350;28;19909;-58
2022/02/06 11:59:02;;;;;;;;;;;23.10;78.40;;;;;;5094566;28;19943;-57
2022/02/06 12:01:31;;;;;;;;;;;23.10;78.40;;;;;;5094543;28;19908;-57
2022/02/06 12:03:58;;;;;;;;;;;23.10;78.50;;;;;;5093956;28;19918;-59
2022/02/06 12:06:29;;;;;;;;;;;23.10;79.10;;;;;;5093861;28;20393;-55
2022/02/06 12:08:59;;;;;;;;;;;23.10;78.60;;;;;;5093875;28;19908;-59
2022/02/06 12:11:26;;;;;;;;;;;23.10;78.60;;;;;;5094191;28;19908;-56
2022/02/06 12:14:11;;;;;;;;;;;23.10;78.70;;;;;;5092533;28;20381;-58
2022/02/06 12:16:48;;;;;;;;;;;23.10;78.80;;;;;;5093872;28;19924;-53
2022/02/06 12:19:35;;;;;;;;;;;23.00;78.90;;;;;;5093663;28;19908;-57
2022/02/06 12:22:20;;;;;;;;;;;23.00;79.00;;;;;;5093492;28;19912;-57
2022/02/06 12:24:46;;;;;;;;;;;23.00;79.10;;;;;;5093634;28;20014;-59
2022/02/06 12:27:21;;;;;;;;;;;23.00;79.10;;;;;;5093756;28;19966;-58
2022/02/06 12:29:50;;;;;;;;;;;23.00;79.20;;;;;;5093703;28;20334;-58
2022/02/06 12:32:36;;;;;;;;;;;23.00;79.30;;;;;;5093749;28;19908;-60
2022/02/06 12:37:53;;;;;;;;;;;22.90;79.30;;;;;;5093965;28;19915;-59
2022/02/06 12:40:21;;;;;;;;;;;23.00;79.40;;;;;;5093750;28;19908;-57
2022/02/06 12:42:57;;;;;;;;;;;22.90;79.40;;;;;;5093794;28;19920;-54
2022/02/06 12:45:25;;;;;;;;;;;23.00;79.50;;;;;;5093756;28;20330;-55
2022/02/06 12:47:56;;;;;;;;;;;22.90;79.50;;;;;;5093198;28;20021;-55
2022/02/06 12:50:24;;;;;;;;;;;22.90;79.50;;;;;;5093612;28;19934;-58
2022/02/06 12:52:51;;;;;;;;;;;22.90;79.50;;;;;;5093521;28;19915;-60
2022/02/06 12:55:19;;;;;;;;;;;22.90;79.60;;;;;;5093526;28;19908;-55
2022/02/06 12:57:50;;;;;;;;;;;22.90;79.60;;;;;;5093438;28;19909;-56
2022/02/06 13:00:25;;;;;;;;;;;22.90;79.60;;;;;;5093586;28;20219;-62
2022/02/06 13:02:51;;;;;;;;;;;22.90;79.60;;;;;;5093750;28;20372;-61
2022/02/06 13:05:19;;;;;;;;;;;22.90;79.70;;;;;;5092350;28;19912;-60
2022/02/06 13:07:46;;;;;;;;;;;22.90;79.70;;;;;;5093582;28;20192;-56
2022/02/06 13:10:14;;;;;;;;;;;22.90;79.70;;;;;;5093501;28;19915;-57
2022/02/06 13:12:55;;;;;;;;;;;22.90;79.70;;;;;;5093382;28;19999;-57
2022/02/06 13:15:47;;;;;;;;;;;22.90;79.80;;;;;;5091770;28;19920;-52
2022/02/06 13:28:54;;;;;;;;;;;22.90;79.80;;;;;;5080725;28;19947;-54
2022/02/06 13:31:44;;;;;;;;;;;22.80;79.80;;;;;;5093174;28;19918;-55
2022/02/06 13:36:45;;;;;;;;;;;22.80;79.80;;;;;;5125723;28;19991;-56
2022/02/06 13:39:24;;;;;;;;;;;22.80;79.80;;;;;;5124241;28;20003;-55
2022/02/06 13:41:51;;;;;;;;;;;22.80;79.90;;;;;;5093168;28;19912;-60
2022/02/06 13:44:22;;;;;;;;;;;22.90;79.90;;;;;;5093245;28;19914;-56
2022/02/06 13:46:48;;;;;;;;;;;22.80;79.90;;;;;;5091683;28;20395;-58
2022/02/06 13:49:16;;;;;;;;;;;22.90;79.90;;;;;;5092745;28;19935;-56
2022/02/06 13:51:46;;;;;;;;;;;22.80;79.90;;;;;;5092936;28;19935;-59
2022/02/06 13:54:14;;;;;;;;;;;22.80;79.90;;;;;;5092778;28;19931;-56
2022/02/06 13:56:40;;;;;;;;;;;22.80;80.00;;;;;;5092900;28;19912;-56
2022/02/06 13:59:11;;;;;;;;;;;22.80;80.00;;;;;;5092655;28;20025;-60
2022/02/06 14:01:41;;;;;;;;;;;22.80;80.00;;;;;;5092545;28;19997;-58
2022/02/06 14:04:18;;;;;;;;;;;22.80;80.10;;;;;;5092012;28;19908;-54
2022/02/06 14:06:52;;;;;;;;;;;22.80;80.10;;;;;;5092576;28;19916;-57
2022/02/06 14:09:31;;;;;;;;;;;22.80;80.20;;;;;;5091239;28;20323;-59
2022/02/06 14:12:05;;;;;;;;;;;22.80;80.20;;;;;;5092293;28;20326;-49
2022/02/06 14:14:33;;;;;;;;;;;22.70;80.30;;;;;;5092470;28;19963;-56
2022/02/06 14:17:00;;;;;;;;;;;22.70;80.40;;;;;;5095198;28;19919;-58
2022/02/06 14:19:41;;;;;;;;;;;22.70;81.10;;;;;;5096091;28;19939;-52
2022/02/06 14:22:09;;;;;;;;;;;22.70;80.60;;;;;;5096250;28;19952;-58
2022/02/06 14:24:52;;;;;;;;;;;22.60;80.80;;;;;;5095405;28;19908;-55
2022/02/06 14:27:29;;;;;;;;;;;22.60;80.90;;;;;;5096577;28;19912;-61
2022/02/06 14:29:59;;;;;;;;;;;22.50;80.90;;;;;;5096171;28;19908;-59
2022/02/06 14:32:26;;;;;;;;;;;22.50;81.20;;;;;;5096101;28;19908;-60
2022/02/06 14:35:19;;;;;;;;;;;22.50;81.30;;;;;;5096312;28;19930;-57
2022/02/06 14:37:49;;;;;;;;;;;22.50;81.40;;;;;;5094914;28;19908;-59
2022/02/06 14:40:34;;;;;;;;;;;22.50;81.50;;;;;;5096286;28;19908;-58
2022/02/06 14:43:22;;;;;;;;;;;22.50;81.60;;;;;;5096116;28;19923;-61
2022/02/06 14:45:52;;;;;;;;;;;22.40;81.60;;;;;;5095596;28;19923;-58
2022/02/06 14:48:19;;;;;;;;;;;22.40;81.70;;;;;;5094553;28;19912;-56
2022/02/06 14:50:47;;;;;;;;;;;22.40;81.60;;;;;;5095783;28;19955;-53
2022/02/06 14:53:13;;;;;;;;;;;22.40;81.70;;;;;;5094582;28;19908;-60
2022/02/06 14:55:42;;;;;;;;;;;22.40;81.80;;;;;;5095685;28;19915;-61
2022/02/06 14:58:09;;;;;;;;;;;22.40;81.80;;;;;;5095530;28;20329;-59
2022/02/06 15:00:38;;;;;;;;;;;22.40;81.70;;;;;;5095556;28;19915;-60
2022/02/06 15:03:09;;;;;;;;;;;22.40;81.70;;;;;;5095547;28;19915;-61
2022/02/06 15:05:36;;;;;;;;;;;22.40;81.80;;;;;;5095406;28;19970;-51
2022/02/06 15:08:03;;;;;;;;;;;22.40;81.80;;;;;;5095320;28;19943;-59
2022/02/06 15:10:31;;;;;;;;;;;22.40;81.80;;;;;;5095404;28;19908;-61
2022/02/06 15:12:58;;;;;;;;;;;22.40;81.80;;;;;;5095551;28;19908;-59
2022/02/06 15:15:33;;;;;;;;;;;22.40;81.80;;;;;;5095382;28;19920;-58
2022/02/06 15:18:09;;;;;;;;;;;22.40;81.80;;;;;;5094985;28;19908;-58
2022/02/06 15:20:36;;;;;;;;;;;22.40;81.80;;;;;;5095528;28;19931;-55
2022/02/06 15:23:07;;;;;;;;;;;22.40;81.80;;;;;;5095435;28;19908;-53
2022/02/06 15:25:34;;;;;;;;;;;22.40;81.90;;;;;;5094998;28;19920;-59
2022/02/06 15:28:01;;;;;;;;;;;22.40;81.80;;;;;;5093986;28;20003;-50
2022/02/06 15:30:28;;;;;;;;;;;22.40;81.80;;;;;;5095087;28;20278;-48
2022/02/06 15:32:55;;;;;;;;;;;22.40;81.80;;;;;;5094846;28;20424;-54
2022/02/06 15:35:21;;;;;;;;;;;22.40;81.80;;;;;;5095283;28;20362;-55
2022/02/06 15:37:48;;;;;;;;;;;22.40;81.80;;;;;;5094715;28;19962;-58
2022/02/06 15:40:21;;;;;;;;;;;22.40;81.90;;;;;;5094548;28;19984;-60
2022/02/06 15:42:47;;;;;;;;;;;22.40;81.90;;;;;;5094874;28;19944;-58
2022/02/06 15:45:14;;;;;;;;;;;22.30;82.00;;;;;;5127218;27;19959;-56
2022/02/06 15:47:41;;;;;;;;;;;22.40;82.10;;;;;;5094333;28;19916;-56
2022/02/06 15:50:09;;;;;;;;;;;22.40;82.10;;;;;;5094397;28;19912;-58
2022/02/06 15:52:36;;;;;;;;;;;22.30;82.10;;;;;;5094524;28;19969;-54
2022/02/06 15:55:03;;;;;;;;;;;22.30;82.20;;;;;;5094404;28;19908;-56
2022/02/06 15:57:30;;;;;;;;;;;22.30;82.30;;;;;;5094720;28;19912;-55
2022/02/06 15:59:57;;;;;;;;;;;22.30;82.40;;;;;;5094167;28;19915;-58
2022/02/06 16:02:24;;;;;;;;;;;22.30;82.40;;;;;;5094434;28;20005;-53
2022/02/06 16:04:51;;;;;;;;;;;22.30;82.50;;;;;;5092966;28;20023;-52
2022/02/06 16:07:17;;;;;;;;;;;22.30;82.50;;;;;;5094505;28;19954;-49
2022/02/06 16:09:44;;;;;;;;;;;22.30;82.60;;;;;;5094190;28;19919;-56
2022/02/06 16:12:11;;;;;;;;;;;22.30;82.70;;;;;;5093868;28;19937;-55
2022/02/06 16:14:41;;;;;;;;;;;22.30;82.70;;;;;;5093764;28;20037;-58
2022/02/06 16:17:09;;;;;;;;;;;22.20;82.70;;;;;;5094045;28;19979;-54
2022/02/06 16:19:36;;;;;;;;;;;22.20;82.70;;;;;;5092488;28;19908;-52
2022/02/06 16:22:05;;;;;;;;;;;22.20;82.70;;;;;;5093804;28;19908;-48
2022/02/06 16:24:33;;;;;;;;;;;22.20;83.10;;;;;;5092547;28;20001;-55
2022/02/06 16:26:59;;;;;;;;;;;22.20;82.90;;;;;;5094115;28;19923;-54
2022/02/06 16:29:26;;;;;;;;;;;22.20;82.90;;;;;;5093818;28;19916;-56
2022/02/06 16:31:53;;;;;;;;;;;22.20;83.00;;;;;;5093709;28;19915;-58
2022/02/06 16:34:20;;;;;;;;;;;22.20;83.00;;;;;;5094058;28;20367;-58
2022/02/06 16:36:47;;;;;;;;;;;22.20;83.00;;;;;;5093774;28;19908;-61
2022/02/06 16:39:16;;;;;;;;;;;22.20;83.10;;;;;;5093633;28;20334;-52
2022/02/06 16:41:43;;;;;;;;;;;22.10;83.10;;;;;;5093444;28;19919;-56
2022/02/06 16:44:09;;;;;;;;;;;22.10;83.20;;;;;;5093590;28;19915;-53
2022/02/06 16:46:36;;;;;;;;;;;22.10;83.20;;;;;;5093472;28;19916;-57
2022/02/06 16:49:03;;;;;;;;;;;22.10;83.40;;;;;;5093588;28;19916;-60
2022/02/06 16:51:30;;;;;;;;;;;22.10;83.40;;;;;;5093518;28;20282;-53
2022/02/06 16:53:56;;;;;;;;;;;22.10;83.40;;;;;;5093662;28;19908;-60
2022/02/06 16:56:24;;;;;;;;;;;22.10;83.40;;;;;;5093673;28;19912;-59
2022/02/06 16:58:51;;;;;;;;;;;22.10;83.40;;;;;;5093459;28;20320;-58
2022/02/06 17:01:18;;;;;;;;;;;22.10;83.40;;;;;;5093648;28;20270;-53
2022/02/06 17:03:44;;;;;;;;;;;22.10;83.40;;;;;;5093490;28;19912;-58
2022/02/06 17:06:11;;;;;;;;;;;22.10;83.40;;;;;;5093097;28;19943;-55
2022/02/06 17:08:41;;;;;;;;;;;22.10;83.30;;;;;;5093137;28;19912;-57